Aérodrome :
LOGIN :

S'inscrire | Disclaimer

   EN    FR    IT 

 










Légende :    VFR   VFR Marginal   IFR   IFR Intensif   IFR Très Intensif
Visi : 
Plafond : 
>= 8 km
>= 3000ft
5 à 8 km
1000 à 3000 ft
1500m à 5 km
500 à 1000 ft
800 à 1500m
200 à 500 ft
< 800m
< 200 ft
Symboles :   Orages  Brouillard  Fortes neiges  Fortes précipitations  Vent > 20 kt
SIGMETs :   Divers  Orages  Givrage  Turbulence  Onde Orograph.  Cendres Volcan.






- Altitude de l'aérodrome : 238 ft
- Code IATA : FAB


EGLF - Farnborough

DERNIER METAR :
  • 182320Z AUTO 24001KT 9999 NCD 16/13 Q1019

METARs EXPIRÉS :
  • 182250Z AUTO 23001KT 9999 NCD 17/13 Q1019
  • 182220Z AUTO 17003KT 9999 NCD 18/13 Q1019
  • 182150Z AUTO 17002KT 9999 NCD 18/13 Q1019
  • 182120Z AUTO 22002KT 9999 NCD 18/13 Q1020
  • 182050Z AUTO 14003KT 9999 NCD 20/13 Q1020
  • 182020Z AUTO 17003KT 9999 NCD 22/13 Q1020
  • 181950Z AUTO 17005KT 9999 NCD 22/13 Q1019
  • 181920Z AUTO 18006KT 9999 NCD 23/13 Q1019
  • 181850Z AUTO 18008KT 9999 NCD 24/13 Q1019

Prévision TAF périmée.
ATIS : +44 09063 800 400 (*282)



MET'MAP, la Météo Aéronautique d'un coup d'oeil ! - Copyright ORBIFLY Décembre 2007 - Disclaimer

ORBIFLY MET'MAP TEAM :

Programmation & Développement : Alexandra Zaïnal
Sur une idée originale de : Baudouin d'Aumeries
Soutien technique & logistique : Manuel Goepfert
Assistance : Marc-Olivier Méhu




SOURCES & CREDITS :

   NOAA